createdAt,value
2018-05-11T00:00:22.852Z,99.99
2018-05-11T00:01:21.794Z,99.99
2018-05-11T00:02:44.058Z,99.99
2018-05-11T00:03:44.128Z,99.99
2018-05-11T00:04:44.423Z,99.99
2018-05-11T00:05:44.259Z,99.99
2018-05-11T00:06:44.439Z,99.99
2018-05-11T00:07:44.515Z,99.99
2018-05-11T00:09:05.862Z,99.99
2018-05-11T00:10:05.713Z,99.99
2018-05-11T00:11:27.450Z,99.99
2018-05-11T00:12:28.074Z,99.99
2018-05-11T00:13:28.192Z,99.99
2018-05-11T00:14:27.987Z,99.99
2018-05-11T00:15:27.997Z,99.99
2018-05-11T00:16:28.066Z,99.99
2018-05-11T00:17:27.977Z,99.99
2018-05-11T00:18:27.706Z,99.99
2018-05-11T00:19:28.786Z,99.99
2018-05-11T00:20:27.508Z,99.99
2018-05-11T00:21:28.089Z,99.99
2018-05-11T00:22:27.737Z,99.99
2018-05-11T00:23:28.417Z,99.99
2018-05-11T00:24:28.138Z,99.99
2018-05-11T00:25:28.168Z,99.99
2018-05-11T00:26:27.966Z,99.99
2018-05-11T00:27:27.649Z,99.99
2018-05-11T00:28:49.042Z,99.99
2018-05-11T00:29:49.613Z,99.99
2018-05-11T00:30:49.298Z,99.99
2018-05-11T00:31:49.943Z,99.99
2018-05-11T00:32:50.089Z,99.99
2018-05-11T00:33:50.301Z,99.99
2018-05-11T00:35:00.701Z,99.99
2018-05-11T00:35:49.355Z,99.99
2018-05-11T00:36:49.943Z,99.99
2018-05-11T00:37:49.899Z,99.99
2018-05-11T00:38:49.975Z,99.99
2018-05-11T00:39:50.072Z,99.99
2018-05-11T00:41:10.257Z,99.99
2018-05-11T00:42:10.898Z,99.99
2018-05-11T00:43:31.416Z,99.99
2018-05-11T00:44:31.013Z,99.99
2018-05-11T00:45:31.749Z,99.99
2018-05-11T00:46:31.392Z,99.99
2018-05-11T00:47:31.658Z,99.99
2018-05-11T00:48:31.386Z,99.99
2018-05-11T00:49:51.875Z,99.99
2018-05-11T00:50:52.847Z,99.99
2018-05-11T00:51:52.987Z,99.99
2018-05-11T00:52:52.684Z,99.99
2018-05-11T00:53:52.303Z,99.99
2018-05-11T00:54:52.288Z,99.99
2018-05-11T00:55:52.441Z,99.99
2018-05-11T00:56:52.524Z,99.99
2018-05-11T00:57:52.083Z,99.99
2018-05-11T00:58:52.675Z,99.99
2018-05-11T00:59:55.329Z,99.99
2018-05-11T01:00:52.135Z,99.99
2018-05-11T01:01:51.892Z,99.99
2018-05-11T01:02:52.916Z,99.99
2018-05-11T01:03:52.381Z,99.99
2018-05-11T01:04:52.020Z,99.99
2018-05-11T01:05:52.646Z,99.99
2018-05-11T01:06:52.354Z,99.99
2018-05-11T01:07:51.994Z,99.99
2018-05-11T01:08:52.646Z,99.99
2018-05-11T01:10:12.820Z,99.99
2018-05-11T01:11:34.204Z,99.99
2018-05-11T01:12:34.887Z,99.99
2018-05-11T01:13:55.053Z,99.99
2018-05-11T01:14:54.703Z,99.99
2018-05-11T01:15:55.196Z,99.99
2018-05-11T01:16:56.079Z,99.99
2018-05-11T01:17:55.615Z,99.99
2018-05-11T01:19:16.029Z,99.99
2018-05-11T01:20:15.596Z,99.99
2018-05-11T01:21:16.220Z,99.99
2018-05-11T01:22:15.967Z,99.99
2018-05-11T01:23:15.779Z,99.99
2018-05-11T01:24:16.477Z,99.99
2018-05-11T01:25:16.550Z,99.99
2018-05-11T01:26:16.478Z,99.99
2018-05-11T01:27:16.092Z,99.99
2018-05-11T01:28:15.658Z,99.99
2018-05-11T01:29:16.271Z,99.99
2018-05-11T01:30:15.972Z,99.99
2018-05-11T01:31:15.714Z,99.99
2018-05-11T01:32:37.084Z,99.99
2018-05-11T01:33:37.182Z,99.99
2018-05-11T01:34:36.822Z,99.99
2018-05-11T01:35:57.839Z,99.99
2018-05-11T01:37:18.897Z,99.99
2018-05-11T01:38:40.452Z,99.99
2018-05-11T01:39:41.002Z,99.99
2018-05-11T01:40:40.512Z,99.99
2018-05-11T01:42:00.681Z,99.99
2018-05-11T01:43:23.163Z,99.99
2018-05-11T01:44:23.117Z,99.99
2018-05-11T01:45:23.159Z,99.99
2018-05-11T01:46:23.293Z,99.99
2018-05-11T01:47:23.990Z,99.99
2018-05-11T01:48:23.444Z,99.99
2018-05-11T01:49:23.643Z,99.99
2018-05-11T01:50:22.297Z,99.99
2018-05-11T01:51:43.333Z,99.99
2018-05-11T01:52:44.322Z,99.99
2018-05-11T01:53:44.308Z,99.99
2018-05-11T01:54:44.145Z,99.99
2018-05-11T01:55:43.729Z,99.99
2018-05-11T01:56:43.397Z,99.99
2018-05-11T01:57:44.278Z,99.99
2018-05-11T01:58:43.978Z,99.99
2018-05-11T01:59:43.590Z,99.99
2018-05-11T02:00:44.092Z,99.99
2018-05-11T02:02:04.047Z,99.99
2018-05-11T02:03:05.225Z,99.99
2018-05-11T02:04:09.820Z,99.99
2018-05-11T02:05:04.740Z,99.99
2018-05-11T02:06:04.406Z,99.99
2018-05-11T02:07:04.941Z,99.99
2018-05-11T02:08:04.501Z,99.99
2018-05-11T02:09:04.932Z,99.99
2018-05-11T02:10:04.630Z,99.99
2018-05-11T02:11:04.377Z,99.99
2018-05-11T02:12:04.086Z,99.99
2018-05-11T02:13:04.559Z,99.99
2018-05-11T02:14:04.468Z,99.99
2018-05-11T02:15:04.125Z,99.99
2018-05-11T02:16:04.923Z,99.99
2018-05-11T02:17:04.765Z,99.99
2018-05-11T02:18:04.513Z,99.99
2018-05-11T02:19:04.213Z,99.99
2018-05-11T02:20:04.901Z,99.99
2018-05-11T02:21:04.651Z,99.99
2018-05-11T02:22:04.498Z,99.99
2018-05-11T02:23:04.217Z,99.99
2018-05-11T02:24:04.848Z,99.99
2018-05-11T02:25:04.927Z,99.99
2018-05-11T02:26:04.616Z,99.99
2018-05-11T02:27:04.524Z,99.99
2018-05-11T02:28:04.250Z,99.99
2018-05-11T02:29:04.291Z,99.99
2018-05-11T02:30:03.963Z,99.99
2018-05-11T02:31:05.536Z,99.99
2018-05-11T02:32:04.661Z,99.99
2018-05-11T02:33:04.407Z,99.99
2018-05-11T02:34:08.909Z,99.99
2018-05-11T02:35:28.108Z,99.99
2018-05-11T02:36:29.187Z,99.99
2018-05-11T02:37:49.524Z,99.99
2018-05-11T02:38:50.074Z,99.99
2018-05-11T02:40:11.041Z,99.99
2018-05-11T02:41:11.464Z,99.99
2018-05-11T02:42:10.963Z,99.99
2018-05-11T02:43:11.548Z,99.99
2018-05-11T02:44:11.407Z,99.99
2018-05-11T02:45:11.101Z,99.99
2018-05-11T02:46:11.127Z,99.99
2018-05-11T02:47:11.596Z,99.99
2018-05-11T02:48:11.491Z,99.99
2018-05-11T02:49:11.387Z,99.99
2018-05-11T02:50:10.949Z,99.99
2018-05-11T02:51:11.973Z,99.99
2018-05-11T02:52:11.612Z,99.99
2018-05-11T02:53:11.342Z,99.99
2018-05-11T02:54:11.255Z,99.99
2018-05-11T02:55:11.322Z,99.99
2018-05-11T02:56:11.357Z,99.99
2018-05-11T02:57:11.123Z,99.99
2018-05-11T02:58:31.454Z,99.99
2018-05-11T02:59:32.125Z,99.99
2018-05-11T03:00:31.724Z,99.99
2018-05-11T03:01:32.275Z,99.99
2018-05-11T03:02:32.268Z,99.99
2018-05-11T03:03:32.785Z,99.99
2018-05-11T03:04:53.272Z,99.99
2018-05-11T03:06:34.874Z,99.99
2018-05-11T03:07:35.873Z,99.99
2018-05-11T03:08:35.850Z,99.99
2018-05-11T03:09:35.559Z,99.99
2018-05-11T03:11:06.067Z,99.99
2018-05-11T03:11:55.667Z,99.99
2018-05-11T03:12:56.395Z,99.99
2018-05-11T03:13:56.355Z,99.99
2018-05-11T03:14:56.467Z,99.99
2018-05-11T03:15:56.079Z,99.99
2018-05-11T03:16:55.631Z,99.99
2018-05-11T03:18:17.098Z,99.99
2018-05-11T03:19:18.219Z,99.99
2018-05-11T03:20:17.762Z,99.99
2018-05-11T03:21:17.816Z,99.99
2018-05-11T03:22:17.487Z,99.99
2018-05-11T03:23:17.267Z,99.99
2018-05-11T03:24:17.837Z,99.99
2018-05-11T03:25:17.825Z,99.99
2018-05-11T03:26:37.921Z,99.99
2018-05-11T03:27:38.836Z,99.99
2018-05-11T03:29:00.012Z,99.99
2018-05-11T03:30:00.577Z,99.99
2018-05-11T03:31:00.604Z,99.99
2018-05-11T03:32:00.504Z,99.99
2018-05-11T03:33:21.377Z,99.99
2018-05-11T03:34:21.180Z,99.99
2018-05-11T03:35:21.862Z,99.99
2018-05-11T03:36:21.456Z,99.99
2018-05-11T03:37:21.436Z,99.99
2018-05-11T03:38:21.434Z,99.99
2018-05-11T03:39:41.636Z,99.99
2018-05-11T03:40:42.569Z,99.99
2018-05-11T03:42:02.642Z,99.99
2018-05-11T03:43:03.263Z,99.99
2018-05-11T03:44:03.050Z,99.99
2018-05-11T03:45:03.089Z,99.99
2018-05-11T03:46:23.584Z,99.99
2018-05-11T03:47:23.637Z,99.99
2018-05-11T03:48:23.421Z,99.99
2018-05-11T03:49:43.587Z,99.99
2018-05-11T03:50:44.660Z,99.99
2018-05-11T03:51:44.485Z,99.99
2018-05-11T03:52:44.150Z,99.99
2018-05-11T03:53:43.741Z,99.99
2018-05-11T03:54:43.567Z,99.99
2018-05-11T03:55:44.528Z,99.99
2018-05-11T03:56:44.209Z,99.99
2018-05-11T03:57:44.020Z,99.99
2018-05-11T03:59:04.533Z,99.99
2018-05-11T04:00:04.281Z,99.99
2018-05-11T04:01:05.041Z,99.99
2018-05-11T04:02:04.785Z,99.99
2018-05-11T04:03:04.968Z,99.99
2018-05-11T04:04:04.850Z,99.99
2018-05-11T04:05:04.750Z,99.99
2018-05-11T04:06:04.676Z,99.99
2018-05-11T04:07:04.793Z,99.99
2018-05-11T04:08:04.733Z,99.99
2018-05-11T04:09:04.966Z,99.99
2018-05-11T04:10:05.187Z,99.99
2018-05-11T04:11:05.405Z,99.99
2018-05-11T04:12:05.579Z,99.99
2018-05-11T04:13:04.305Z,99.99
2018-05-11T04:14:04.989Z,99.99
2018-05-11T04:15:05.102Z,99.99
2018-05-11T04:16:25.973Z,99.99
2018-05-11T04:17:27.044Z,99.99
2018-05-11T04:18:26.885Z,99.99
2018-05-11T04:19:27.018Z,99.99
2018-05-11T04:20:27.425Z,99.99
2018-05-11T04:21:26.368Z,99.99
2018-05-11T04:22:26.747Z,99.99
2018-05-11T04:23:26.710Z,99.99
2018-05-11T04:24:26.529Z,99.99
2018-05-11T04:25:26.574Z,99.99
2018-05-11T04:26:26.845Z,99.99
2018-05-11T04:27:26.512Z,99.99
2018-05-11T04:28:26.589Z,99.99
2018-05-11T04:29:26.348Z,99.99
2018-05-11T04:30:26.005Z,99.99
2018-05-11T04:31:26.670Z,99.99
2018-05-11T04:32:26.376Z,99.99
2018-05-11T04:33:26.379Z,99.99
2018-05-11T04:34:26.624Z,99.99
2018-05-11T04:35:47.607Z,99.99
2018-05-11T04:36:47.473Z,99.99
2018-05-11T04:37:48.059Z,99.99
2018-05-11T04:38:48.328Z,99.99
2018-05-11T04:39:47.970Z,99.99
2018-05-11T04:40:47.911Z,99.99
2018-05-11T04:42:00.628Z,99.99
2018-05-11T04:42:47.378Z,99.99
2018-05-11T04:44:29.677Z,99.99
2018-05-11T04:45:30.680Z,99.99
2018-05-11T04:46:30.928Z,99.99
2018-05-11T04:47:30.017Z,99.99
2018-05-11T04:48:30.647Z,99.99
2018-05-11T04:49:30.709Z,99.99
2018-05-11T04:50:30.393Z,99.99
2018-05-11T04:51:30.213Z,99.99
2018-05-11T04:52:30.401Z,99.99
2018-05-11T04:53:30.327Z,99.99
2018-05-11T04:54:30.378Z,99.99
2018-05-11T04:55:30.184Z,99.99
2018-05-11T04:56:29.957Z,99.99
2018-05-11T04:57:31.233Z,99.99
2018-05-11T04:58:30.304Z,99.99
2018-05-11T04:59:30.568Z,99.99
2018-05-11T05:00:51.123Z,99.99
2018-05-11T05:01:51.807Z,99.99
2018-05-11T05:02:51.546Z,99.99
2018-05-11T05:03:51.729Z,99.99
2018-05-11T05:04:51.901Z,99.99
2018-05-11T05:05:52.992Z,99.99
2018-05-11T05:06:52.192Z,99.99
2018-05-11T05:07:52.053Z,99.99
2018-05-11T05:08:51.824Z,99.99
2018-05-11T05:09:52.430Z,99.99
2018-05-11T05:10:51.602Z,99.99
2018-05-11T05:11:51.606Z,99.99
2018-05-11T05:12:52.180Z,99.99
2018-05-11T05:13:52.136Z,99.99
2018-05-11T05:14:52.024Z,99.99
2018-05-11T05:15:52.434Z,99.99
2018-05-11T05:17:14.498Z,99.99
2018-05-11T05:18:14.790Z,99.99
2018-05-11T05:19:15.905Z,99.99
2018-05-11T05:20:35.930Z,99.99
2018-05-11T05:21:37.216Z,99.99
2018-05-11T05:22:35.870Z,99.99
2018-05-11T05:23:36.113Z,99.99
2018-05-11T05:24:36.234Z,99.99
2018-05-11T05:25:36.461Z,99.99
2018-05-11T05:26:36.545Z,99.99
2018-05-11T05:27:36.757Z,99.99
2018-05-11T05:28:36.762Z,99.99
2018-05-11T05:29:36.052Z,99.99
2018-05-11T05:30:36.013Z,99.99
2018-05-11T05:31:37.444Z,99.99
2018-05-11T05:32:36.320Z,99.99
2018-05-11T05:33:36.532Z,99.99
2018-05-11T05:34:57.321Z,99.99
2018-05-11T05:35:57.755Z,99.99
2018-05-11T05:36:58.405Z,99.99
2018-05-11T05:37:57.150Z,99.99
2018-05-11T05:38:57.798Z,99.99
2018-05-11T05:39:57.674Z,99.99
2018-05-11T05:40:57.820Z,99.99
2018-05-11T05:41:57.561Z,99.99
2018-05-11T05:42:57.462Z,99.99
2018-05-11T05:43:57.115Z,99.99
2018-05-11T05:44:56.932Z,99.99
2018-05-11T05:45:57.274Z,99.99
2018-05-11T05:46:57.485Z,99.99
2018-05-11T05:47:57.791Z,99.99
2018-05-11T05:48:58.116Z,99.99
2018-05-11T05:50:39.155Z,99.99
2018-05-11T05:51:40.467Z,99.99
2018-05-11T05:52:39.198Z,99.99
2018-05-11T05:53:40.097Z,99.99
2018-05-11T05:54:40.206Z,99.99
2018-05-11T05:55:39.130Z,99.99
2018-05-11T05:56:39.968Z,99.99
2018-05-11T05:57:40.135Z,99.99
2018-05-11T05:58:39.944Z,99.99
2018-05-11T05:59:39.721Z,99.99
2018-05-11T06:00:39.901Z,99.99
2018-05-11T06:01:40.262Z,99.99
2018-05-11T06:02:40.333Z,99.99
2018-05-11T06:03:40.422Z,99.99
2018-05-11T06:04:40.249Z,99.99
2018-05-11T06:05:40.312Z,99.99
2018-05-11T06:06:39.093Z,99.99
2018-05-11T06:07:39.946Z,99.99
2018-05-11T06:08:39.751Z,99.99
2018-05-11T06:09:39.879Z,99.99
2018-05-11T06:11:00.997Z,99.99
2018-05-11T06:12:00.712Z,99.99
2018-05-11T06:13:01.671Z,99.99
2018-05-11T06:14:22.123Z,99.99
2018-05-11T06:15:23.384Z,99.99
2018-05-11T06:16:22.568Z,99.99
2018-05-11T06:17:22.874Z,99.99
2018-05-11T06:18:23.146Z,99.99
2018-05-11T06:19:22.159Z,99.99
2018-05-11T06:20:23.360Z,99.99
2018-05-11T06:21:22.101Z,99.99
2018-05-11T06:22:23.592Z,99.99
2018-05-11T06:23:22.336Z,99.99
2018-05-11T06:24:22.390Z,99.99
2018-05-11T06:25:22.561Z,99.99
2018-05-11T06:26:22.853Z,99.99
2018-05-11T06:27:22.965Z,99.99
2018-05-11T06:28:22.843Z,99.99
2018-05-11T06:29:22.902Z,99.99
2018-05-11T06:30:23.733Z,99.99
2018-05-11T06:31:22.527Z,99.99
2018-05-11T06:32:22.808Z,99.99
2018-05-11T06:33:43.433Z,99.99
2018-05-11T06:34:44.084Z,99.99
2018-05-11T06:35:43.883Z,99.99
2018-05-11T06:36:44.392Z,99.99
2018-05-11T06:37:44.583Z,99.99
2018-05-11T06:38:44.313Z,99.99
2018-05-11T06:39:43.972Z,99.99
2018-05-11T06:40:44.677Z,99.99
2018-05-11T06:41:44.698Z,99.99
2018-05-11T06:43:05.546Z,99.99
2018-05-11T06:44:05.732Z,99.99
2018-05-11T06:45:05.898Z,99.99
2018-05-11T06:46:06.013Z,99.99
2018-05-11T06:47:06.142Z,99.99
2018-05-11T06:48:05.964Z,99.99
2018-05-11T06:49:05.706Z,99.99
2018-05-11T06:50:05.722Z,99.99
2018-05-11T06:51:05.536Z,99.99
2018-05-11T06:52:26.349Z,99.99
2018-05-11T06:53:48.210Z,99.99
2018-05-11T06:54:48.572Z,99.99
2018-05-11T06:55:48.450Z,99.99
2018-05-11T06:56:48.442Z,99.99
2018-05-11T06:57:48.359Z,99.99
2018-05-11T06:58:48.221Z,99.99
2018-05-11T06:59:47.953Z,99.99
2018-05-11T07:00:49.045Z,99.99
2018-05-11T07:01:48.377Z,99.99
2018-05-11T07:02:48.316Z,99.99
2018-05-11T07:04:09.037Z,99.99
2018-05-11T07:05:29.786Z,99.99
2018-05-11T07:06:31.199Z,99.99
2018-05-11T07:07:30.457Z,99.99
2018-05-11T07:08:30.286Z,99.99
2018-05-11T07:09:30.044Z,99.99
2018-05-11T07:10:29.764Z,99.99
2018-05-11T07:11:30.475Z,99.99
2018-05-11T07:12:30.722Z,99.99
2018-05-11T07:13:30.932Z,99.99
2018-05-11T07:14:30.331Z,99.99
2018-05-11T07:15:30.703Z,99.99
2018-05-11T07:16:31.124Z,99.99
2018-05-11T07:17:50.522Z,99.99
2018-05-11T07:18:51.479Z,99.99
2018-05-11T07:19:51.288Z,99.99
2018-05-11T07:20:51.415Z,99.99
2018-05-11T07:21:51.156Z,99.99
2018-05-11T07:22:51.512Z,99.99
2018-05-11T07:23:51.808Z,99.99
2018-05-11T07:24:51.610Z,99.99
2018-05-11T07:25:51.559Z,99.99
2018-05-11T07:26:51.242Z,99.99
2018-05-11T07:27:51.315Z,99.99
2018-05-11T07:28:52.000Z,99.99
2018-05-11T07:29:51.298Z,98.47
2018-05-11T07:30:51.608Z,97.85
2018-05-11T07:31:51.839Z,96.61
2018-05-11T07:33:32.026Z,92.57
2018-05-11T07:34:43.989Z,89.98
2018-05-11T07:35:33.369Z,89.65
2018-05-11T07:36:32.441Z,91.09
2018-05-11T07:37:55.376Z,91.04
2018-05-11T07:39:18.226Z,90.08
2018-05-11T07:40:19.177Z,91.42
2018-05-11T07:41:18.674Z,92.00
2018-05-11T07:42:18.893Z,91.91
2018-05-11T07:43:20.173Z,91.52
2018-05-11T07:44:18.337Z,90.95
2018-05-11T07:45:21.779Z,90.28
2018-05-11T07:46:18.836Z,91.24
2018-05-11T07:47:19.854Z,92.00
2018-05-11T07:48:19.647Z,89.12
2018-05-11T07:49:20.518Z,87.96
2018-05-11T07:50:19.625Z,87.19
2018-05-11T07:51:20.186Z,87.43
2018-05-11T07:52:19.719Z,87.62
2018-05-11T07:53:19.959Z,87.49
2018-05-11T07:54:39.858Z,86.43
2018-05-11T07:55:41.023Z,86.66
2018-05-11T07:56:40.371Z,84.69
2018-05-11T07:57:41.169Z,83.97
2018-05-11T07:58:40.348Z,83.93
2018-05-11T07:59:40.749Z,85.66
2018-05-11T08:00:40.854Z,86.38
2018-05-11T08:01:40.862Z,87.73
2018-05-11T08:02:40.278Z,88.59
2018-05-11T08:03:41.081Z,89.75
2018-05-11T08:05:01.526Z,89.75
2018-05-11T08:06:01.401Z,89.36
2018-05-11T08:07:22.383Z,88.35
2018-05-11T08:08:22.755Z,89.22
2018-05-11T08:09:22.868Z,89.75
2018-05-11T08:10:45.659Z,89.65
2018-05-11T08:11:46.937Z,87.77
2018-05-11T08:12:45.969Z,87.29
2018-05-11T08:13:46.200Z,86.04
2018-05-11T08:14:47.931Z,84.06
2018-05-11T08:15:46.194Z,82.71
2018-05-11T08:17:13.512Z,81.30
2018-05-11T08:18:13.045Z,80.68
2018-05-11T08:19:13.830Z,75.42
2018-05-11T08:20:14.913Z,75.99
2018-05-11T08:21:38.090Z,77.40
2018-05-11T08:22:38.140Z,78.23
2018-05-11T08:23:37.181Z,79.73
2018-05-11T08:24:38.080Z,78.77
2018-05-11T08:25:37.429Z,81.04
2018-05-11T08:26:40.085Z,79.88
2018-05-11T08:27:37.539Z,80.42
2018-05-11T08:29:00.624Z,81.72
2018-05-11T08:30:02.289Z,82.40
2018-05-11T08:31:02.666Z,81.24
2018-05-11T08:32:02.288Z,81.72
2018-05-11T08:33:02.266Z,81.53
2018-05-11T08:34:03.019Z,81.78
2018-05-11T08:35:01.061Z,82.35
2018-05-11T08:36:01.128Z,82.87
2018-05-11T08:37:02.098Z,82.53
2018-05-11T08:38:01.037Z,81.67
2018-05-11T08:39:02.202Z,81.42
2018-05-11T08:40:01.831Z,79.28
2018-05-11T08:41:01.580Z,78.40
2018-05-11T08:42:01.977Z,77.92
2018-05-11T08:43:02.278Z,77.23
2018-05-11T08:44:01.259Z,75.93
2018-05-11T08:45:02.380Z,74.30
2018-05-11T08:46:03.039Z,74.65
2018-05-11T08:47:00.953Z,74.32
2018-05-11T08:48:03.034Z,75.57
2018-05-11T08:49:03.533Z,76.59
2018-05-11T08:50:02.447Z,75.92
2018-05-11T08:51:02.493Z,73.03
2018-05-11T08:52:02.278Z,75.15
2018-05-11T08:53:02.198Z,75.59
2018-05-11T08:54:01.715Z,76.07
2018-05-11T08:55:01.011Z,75.73
2018-05-11T08:56:02.348Z,75.15
2018-05-11T08:57:03.112Z,74.01
2018-05-11T08:58:04.309Z,73.95
2018-05-11T08:59:02.341Z,71.77
2018-05-11T09:00:04.198Z,71.06
2018-05-11T09:01:02.677Z,70.76
2018-05-11T09:02:01.667Z,69.38
2018-05-11T09:03:01.790Z,69.02
2018-05-11T09:04:24.148Z,71.49
2018-05-11T09:05:24.244Z,73.80
2018-05-11T09:06:47.018Z,72.94
2018-05-11T09:07:47.417Z,72.61
2018-05-11T09:08:47.105Z,74.96
2018-05-11T09:09:47.413Z,74.19
2018-05-11T09:10:48.709Z,73.03
2018-05-11T09:11:49.160Z,72.36
2018-05-11T09:12:48.091Z,72.55
2018-05-11T09:13:47.806Z,73.42
2018-05-11T09:14:46.654Z,71.87
2018-05-11T09:15:47.246Z,71.53
2018-05-11T09:16:46.499Z,70.56
2018-05-11T09:17:46.338Z,70.21
2018-05-11T09:18:48.098Z,69.07
2018-05-11T09:19:48.724Z,66.36
2018-05-11T09:21:33.009Z,64.72
2018-05-11T09:22:32.508Z,61.36
2018-05-11T09:23:32.722Z,59.18
2018-05-11T09:24:33.517Z,61.44
2018-05-11T09:25:33.100Z,62.18
2018-05-11T09:26:33.893Z,62.25
2018-05-11T09:27:33.799Z,62.34
2018-05-11T09:28:32.081Z,64.05
2018-05-11T09:29:31.992Z,64.82
2018-05-11T09:30:31.940Z,65.69
2018-05-11T09:31:31.894Z,66.62
2018-05-11T09:32:32.075Z,66.14
2018-05-11T09:33:31.490Z,66.78
2018-05-11T09:34:31.636Z,69.38
2018-05-11T09:35:31.439Z,70.89
2018-05-11T09:36:31.297Z,72.43
2018-05-11T09:37:33.595Z,71.53
2018-05-11T09:38:31.476Z,72.20
2018-05-11T09:39:32.668Z,73.74
2018-05-11T09:40:31.991Z,72.78
2018-05-11T09:41:32.108Z,71.87
2018-05-11T09:42:32.146Z,72.55
2018-05-11T09:43:32.156Z,73.90
2018-05-11T09:44:31.555Z,73.90
2018-05-11T09:45:32.256Z,74.25
2018-05-11T09:46:53.325Z,74.82
2018-05-11T09:47:53.629Z,74.60
2018-05-11T09:48:53.978Z,73.63
2018-05-11T09:49:52.930Z,74.98
2018-05-11T09:50:54.128Z,76.17
2018-05-11T09:51:53.197Z,76.56
2018-05-11T09:52:53.410Z,77.13
2018-05-11T09:53:54.036Z,76.59
2018-05-11T09:55:13.737Z,72.55
2018-05-11T09:56:14.062Z,71.87
2018-05-11T09:57:14.146Z,71.14
2018-05-11T09:58:35.232Z,71.22
2018-05-11T09:59:35.581Z,69.84
2018-05-11T10:00:36.033Z,69.10
2018-05-11T10:01:36.445Z,67.52
2018-05-11T10:02:35.916Z,67.52
2018-05-11T10:03:36.067Z,67.04
2018-05-11T10:04:36.152Z,66.46
2018-05-11T10:05:35.472Z,66.94
2018-05-11T10:06:35.312Z,67.04
2018-05-11T10:07:35.413Z,68.19
2018-05-11T10:08:56.485Z,68.93
2018-05-11T10:09:56.792Z,68.59
2018-05-11T10:10:57.627Z,69.10
2018-05-11T10:11:56.826Z,67.69
2018-05-11T10:12:57.425Z,66.63
2018-05-11T10:13:56.580Z,65.50
2018-05-11T10:14:56.614Z,65.59
2018-05-11T10:15:56.616Z,64.76
2018-05-11T10:16:56.592Z,64.47
2018-05-11T10:17:56.641Z,65.69
2018-05-11T10:18:56.881Z,65.11
2018-05-11T10:19:56.935Z,65.88
2018-05-11T10:20:57.079Z,62.50
2018-05-11T10:21:56.513Z,58.59
2018-05-11T10:22:57.196Z,58.17
2018-05-11T10:23:56.526Z,59.69
2018-05-11T10:24:56.586Z,59.95
2018-05-11T10:25:56.478Z,59.47
2018-05-11T10:26:57.089Z,60.99
2018-05-11T10:27:57.024Z,61.27
2018-05-11T10:28:56.936Z,62.53
2018-05-11T10:29:57.286Z,62.40
2018-05-11T10:30:56.160Z,61.73
2018-05-11T10:31:56.073Z,62.95
2018-05-11T10:32:57.652Z,63.15
2018-05-11T10:34:19.385Z,64.28
2018-05-11T10:35:19.829Z,64.50
2018-05-11T10:36:39.985Z,61.92
2018-05-11T10:37:41.191Z,62.28
2018-05-11T10:38:40.528Z,63.31
2018-05-11T10:39:41.080Z,63.98
2018-05-11T10:40:40.044Z,64.86
2018-05-11T10:41:40.552Z,64.18
2018-05-11T10:42:41.923Z,62.63
2018-05-11T10:43:40.381Z,63.31
2018-05-11T10:44:40.350Z,64.18
2018-05-11T10:46:22.263Z,62.05
2018-05-11T10:47:22.448Z,62.05
2018-05-11T10:48:22.254Z,61.67
2018-05-11T10:49:22.808Z,62.44
2018-05-11T10:50:23.307Z,61.77
2018-05-11T10:51:23.250Z,62.15
2018-05-11T10:52:22.317Z,62.15
2018-05-11T10:53:23.266Z,61.54
2018-05-11T10:54:22.612Z,61.61
2018-05-11T10:55:22.927Z,62.48
2018-05-11T10:56:24.194Z,63.44
2018-05-11T10:57:22.800Z,63.34
2018-05-11T10:58:23.590Z,62.86
2018-05-11T10:59:44.968Z,63.54
2018-05-11T11:00:44.872Z,61.99
2018-05-11T11:01:44.984Z,62.51
2018-05-11T11:02:44.037Z,63.98
2018-05-11T11:03:44.398Z,64.40
2018-05-11T11:04:44.358Z,61.60
2018-05-11T11:05:44.472Z,61.34
2018-05-11T11:06:43.900Z,60.76
2018-05-11T11:07:43.817Z,61.70
2018-05-11T11:08:43.710Z,61.54
2018-05-11T11:09:43.710Z,59.12
2018-05-11T11:10:43.937Z,60.47
2018-05-11T11:11:44.496Z,59.70
2018-05-11T11:12:44.745Z,61.25
2018-05-11T11:13:43.643Z,60.44
2018-05-11T11:14:43.844Z,59.58
2018-05-11T11:15:45.113Z,58.83
2018-05-11T11:16:44.185Z,58.95
2018-05-11T11:18:06.561Z,58.67
2018-05-11T11:19:06.662Z,58.50
2018-05-11T11:20:08.472Z,57.41
2018-05-11T11:21:06.811Z,56.86
2018-05-11T11:22:06.804Z,56.72
2018-05-11T11:23:27.566Z,56.13
2018-05-11T11:24:27.602Z,54.34
2018-05-11T11:25:30.766Z,53.61
2018-05-11T11:26:28.663Z,52.76
2018-05-11T11:27:27.545Z,51.53
2018-05-11T11:28:30.358Z,49.27
2018-05-11T11:29:27.368Z,50.29
2018-05-11T11:30:27.445Z,51.31
2018-05-11T11:31:28.889Z,51.86
2018-05-11T11:32:27.965Z,53.09
2018-05-11T11:33:28.455Z,53.55
2018-05-11T11:34:28.030Z,54.33
2018-05-11T11:35:28.152Z,55.36
2018-05-11T11:36:28.094Z,55.66
2018-05-11T11:37:28.330Z,54.91
2018-05-11T11:38:28.556Z,54.58
2018-05-11T11:39:27.574Z,53.17
2018-05-11T11:40:28.890Z,54.05
2018-05-11T11:41:28.105Z,52.56
2018-05-11T11:42:48.846Z,53.19
2018-05-11T11:43:50.223Z,52.47
2018-05-11T11:44:49.276Z,53.89
2018-05-11T11:45:49.609Z,53.22
2018-05-11T11:46:49.836Z,53.58
2018-05-11T11:47:50.350Z,53.49
2018-05-11T11:49:10.937Z,55.20
2018-05-11T11:50:10.925Z,56.56
2018-05-11T11:51:11.332Z,56.43
2018-05-11T11:52:11.177Z,55.07
2018-05-11T11:53:32.200Z,57.46
2018-05-11T11:54:53.192Z,57.34
2018-05-11T11:55:54.363Z,58.67
2018-05-11T11:56:53.548Z,59.25
2018-05-11T11:57:53.334Z,57.46
2018-05-11T11:58:53.653Z,55.56
2018-05-11T12:00:15.051Z,55.00
2018-05-11T12:01:15.079Z,54.69
2018-05-11T12:02:36.120Z,54.93
2018-05-11T12:03:36.451Z,57.41
2018-05-11T12:04:36.536Z,57.60
2018-05-11T12:05:35.864Z,57.38
2018-05-11T12:06:36.238Z,57.84
2018-05-11T12:07:37.000Z,58.42
2018-05-11T12:08:57.697Z,59.55
2018-05-11T12:09:58.151Z,58.97
2018-05-11T12:10:59.065Z,59.80
2018-05-11T12:11:58.146Z,60.10
2018-05-11T12:12:58.597Z,59.71
2018-05-11T12:13:57.612Z,60.86
2018-05-11T12:14:57.915Z,60.45
2018-05-11T12:15:57.963Z,61.13
2018-05-11T12:16:57.845Z,62.09
2018-05-11T12:17:57.720Z,60.89
2018-05-11T12:18:57.527Z,59.12
2018-05-11T12:19:57.582Z,56.71
2018-05-11T12:20:57.697Z,56.99
2018-05-11T12:21:57.990Z,57.32
2018-05-11T12:22:58.153Z,58.45
2018-05-11T12:23:58.279Z,60.16
2018-05-11T12:24:57.807Z,60.55
2018-05-11T12:26:19.219Z,62.48
2018-05-11T12:27:19.562Z,63.02
2018-05-11T12:28:41.152Z,64.18
2018-05-11T12:29:41.273Z,63.79
2018-05-11T12:30:41.684Z,63.34
2018-05-11T12:31:41.494Z,61.77
2018-05-11T12:32:41.926Z,59.96
2018-05-11T12:33:40.868Z,59.31
2018-05-11T12:34:41.102Z,56.73
2018-05-11T12:35:41.118Z,56.80
2018-05-11T12:36:41.966Z,57.19
2018-05-11T12:37:40.997Z,58.12
2018-05-11T12:38:40.982Z,58.51
2018-05-11T12:40:03.005Z,57.67
2018-05-11T12:41:03.471Z,58.18
2018-05-11T12:42:03.552Z,57.05
2018-05-11T12:43:03.857Z,56.88
2018-05-11T12:44:26.378Z,56.34
2018-05-11T12:45:25.689Z,55.90
2018-05-11T12:46:25.627Z,54.96
2018-05-11T12:47:47.036Z,51.40
2018-05-11T12:48:47.516Z,52.20
2018-05-11T12:49:48.510Z,48.80
2018-05-11T12:50:47.270Z,48.54
2018-05-11T12:51:47.862Z,47.88
2018-05-11T12:52:46.753Z,47.40
2018-05-11T12:53:47.951Z,47.47
2018-05-11T12:54:48.455Z,49.54
2018-05-11T12:55:48.437Z,51.13
2018-05-11T12:57:29.472Z,52.97
2018-05-11T12:58:29.913Z,52.85
2018-05-11T12:59:29.820Z,52.36
2018-05-11T13:00:29.836Z,52.12
2018-05-11T13:01:30.088Z,51.37
2018-05-11T13:02:49.991Z,49.56
2018-05-11T13:03:51.352Z,47.83
2018-05-11T13:04:50.686Z,47.76
2018-05-11T13:05:51.573Z,48.35
2018-05-11T13:06:51.703Z,48.39
2018-05-11T13:07:51.442Z,48.03
2018-05-11T13:08:50.505Z,48.13
2018-05-11T13:09:50.748Z,46.08
2018-05-11T13:10:51.131Z,45.31
2018-05-11T13:11:50.484Z,45.04
2018-05-11T13:12:50.415Z,44.35
2018-05-11T13:14:15.355Z,45.81
2018-05-11T13:15:15.492Z,45.64
2018-05-11T13:16:16.601Z,44.16
2018-05-11T13:17:16.050Z,44.48
2018-05-11T13:18:36.252Z,46.19
2018-05-11T13:19:37.211Z,47.35
2018-05-11T13:20:37.055Z,47.64
2018-05-11T13:21:37.484Z,47.72
2018-05-11T13:22:36.647Z,48.47
2018-05-11T13:23:36.874Z,49.15
2018-05-11T13:24:36.905Z,48.32
2018-05-11T13:25:37.135Z,48.81
2018-05-11T13:26:58.061Z,50.16
2018-05-11T13:27:58.605Z,49.32